Bookmark and Share
Track history (hours):
 

Hatsu Excel

Last reported at 2014-Apr-22 23:21 UTC. Time now 2014-Apr-24 22:11 UTC.
Position N 22°34' E 114°16'.

Type: Ship (hazmat cat D). MMSI: 235479000.

NotesDate/timePositionNaut miles runAvg speedWind from/ knotsBaromVisibWave heightAir tempDewpointWater temp
2014-Apr-22 23:21N 22°34' E 114°16'1 0.8
2014-Apr-22 22:32N 22°34' E 114°16'0 0.0
2014-Apr-22 21:26N 22°34' E 114°16'0 0.0
2014-Apr-22 20:32N 22°34' E 114°16'0 0.0
2014-Apr-22 19:32N 22°34' E 114°16'0 0.0
2014-Apr-22 18:32N 22°34' E 114°16'0 0.0
2014-Apr-22 17:32N 22°34' E 114°16'0 0.0
2014-Apr-22 16:32N 22°34' E 114°16'0 0.0
2014-Apr-22 15:26N 22°34' E 114°16'0 0.0
2014-Apr-22 14:32N 22°34' E 114°16'17 0.8
2014-Apr-21 16:23N 22°20' E 114°05'  
2014-Apr-18 07:23N 30°23' E 122°53'1513.7
2014-Apr-18 06:19N 30°29' E 122°38'1113.0
2014-Apr-18 05:26N 30°31' E 122°25'910.1
2014-Apr-18 04:32N 30°33' E 122°14'10 9.9
2014-Apr-18 03:33N 30°37' E 122°04'44 1.1
2014-Apr-16 10:32N 30°35' E 122°54'29216.9
2014-Apr-15 17:18N 35°16' E 121°19'1418.1
2014-Apr-15 16:33N 35°28' E 121°10'2019.3
2014-Apr-15 15:33N 35°42' E 120°53'2018.6
2014-Apr-15 14:28N 35°57' E 120°38'15 7.6
2014-Apr-15 12:34N 36°01' E 120°20'5 0.3
2014-Apr-14 20:30N 36°01' E 120°14'8 8.5
2014-Apr-14 19:34N 36°01' E 120°24'1111.2
2014-Apr-14 18:34N 35°58' E 120°37'1 1.3
2014-Apr-14 17:34N 35°58' E 120°39'41613.4
2014-Apr-13 10:33N 35°05' E 129°06'2 1.7
2014-Apr-13 09:20N 35°06' E 129°04'0 0.0
2014-Apr-13 08:32N 35°06' E 129°04'0 0.0
2014-Apr-13 07:32N 35°06' E 129°04'0 0.0
2014-Apr-13 06:32N 35°06' E 129°04'0 0.0
2014-Apr-13 05:26N 35°06' E 129°04'0 0.0
2014-Apr-13 04:26N 35°06' E 129°04'0 0.0
2014-Apr-13 02:33N 35°06' E 129°04'7 6.9
2014-Apr-13 01:33N 35°02' E 129°10'  

Dump ship's entire track history

sailing weather and tide predictions

Hatsu Excel — VSXV3 — position and weather